sensor_id;sensor_type;location;lat;lon;timestamp;P1;durP1;ratioP1;P2;durP2;ratioP2
11835;SDS011;5977;51.972;7.640;2022-08-23T00:01:15;160.40;;;55.30;;
11835;SDS011;5977;51.972;7.640;2022-08-23T00:03:48;160.77;;;55.53;;
11835;SDS011;5977;51.972;7.640;2022-08-23T00:06:17;160.93;;;55.83;;
11835;SDS011;5977;51.972;7.640;2022-08-23T00:08:45;161.07;;;55.53;;
11835;SDS011;5977;51.972;7.640;2022-08-23T00:11:24;161.43;;;55.87;;
11835;SDS011;5977;51.972;7.640;2022-08-23T00:13:57;161.43;;;56.20;;
11835;SDS011;5977;51.972;7.640;2022-08-23T00:16:26;161.90;;;56.37;;
11835;SDS011;5977;51.972;7.640;2022-08-23T00:18:55;161.83;;;56.47;;
11835;SDS011;5977;51.972;7.640;2022-08-23T00:21:24;161.87;;;56.23;;
11835;SDS011;5977;51.972;7.640;2022-08-23T00:23:54;160.77;;;55.60;;
11835;SDS011;5977;51.972;7.640;2022-08-23T00:26:22;161.47;;;56.23;;
11835;SDS011;5977;51.972;7.640;2022-08-23T00:28:50;160.03;;;55.00;;
11835;SDS011;5977;51.972;7.640;2022-08-23T00:31:18;159.97;;;55.13;;
11835;SDS011;5977;51.972;7.640;2022-08-23T00:33:46;160.53;;;55.33;;
11835;SDS011;5977;51.972;7.640;2022-08-23T00:36:16;160.77;;;55.53;;
11835;SDS011;5977;51.972;7.640;2022-08-23T00:38:44;161.33;;;56.10;;
11835;SDS011;5977;51.972;7.640;2022-08-23T00:41:11;160.73;;;55.80;;
11835;SDS011;5977;51.972;7.640;2022-08-23T00:43:39;160.80;;;55.80;;
11835;SDS011;5977;51.972;7.640;2022-08-23T00:46:29;161.67;;;56.27;;
11835;SDS011;5977;51.972;7.640;2022-08-23T00:49:24;161.57;;;55.50;;
11835;SDS011;5977;51.972;7.640;2022-08-23T00:51:55;161.40;;;55.60;;
11835;SDS011;5977;51.972;7.640;2022-08-23T00:54:28;161.40;;;55.57;;
11835;SDS011;5977;51.972;7.640;2022-08-23T00:56:59;160.60;;;55.17;;
11835;SDS011;5977;51.972;7.640;2022-08-23T00:59:31;161.57;;;55.57;;
11835;SDS011;5977;51.972;7.640;2022-08-23T01:01:59;161.10;;;55.80;;
11835;SDS011;5977;51.972;7.640;2022-08-23T01:04:30;161.20;;;55.73;;
11835;SDS011;5977;51.972;7.640;2022-08-23T01:07:06;160.93;;;55.90;;
11835;SDS011;5977;51.972;7.640;2022-08-23T01:09:38;161.13;;;55.63;;
11835;SDS011;5977;51.972;7.640;2022-08-23T01:12:09;160.10;;;55.43;;
11835;SDS011;5977;51.972;7.640;2022-08-23T01:14:45;161.57;;;55.70;;
11835;SDS011;5977;51.972;7.640;2022-08-23T01:17:18;160.83;;;55.53;;
11835;SDS011;5977;51.972;7.640;2022-08-23T01:19:49;161.63;;;55.57;;
11835;SDS011;5977;51.972;7.640;2022-08-23T01:22:23;161.60;;;55.97;;
11835;SDS011;5977;51.972;7.640;2022-08-23T01:24:56;160.50;;;55.33;;
11835;SDS011;5977;51.972;7.640;2022-08-23T01:27:36;161.50;;;55.77;;
11835;SDS011;5977;51.972;7.640;2022-08-23T01:30:06;160.70;;;55.27;;
11835;SDS011;5977;51.972;7.640;2022-08-23T01:32:42;161.37;;;55.20;;
11835;SDS011;5977;51.972;7.640;2022-08-23T01:35:13;161.07;;;55.40;;
11835;SDS011;5977;51.972;7.640;2022-08-23T01:37:42;161.23;;;55.33;;
11835;SDS011;5977;51.972;7.640;2022-08-23T01:40:12;160.97;;;55.10;;
11835;SDS011;5977;51.972;7.640;2022-08-23T01:42:42;160.30;;;54.83;;
11835;SDS011;5977;51.972;7.640;2022-08-23T01:45:11;160.30;;;54.80;;
11835;SDS011;5977;51.972;7.640;2022-08-23T01:47:40;162.00;;;56.27;;
11835;SDS011;5977;51.972;7.640;2022-08-23T01:50:09;161.20;;;55.50;;
11835;SDS011;5977;51.972;7.640;2022-08-23T01:52:38;161.43;;;56.30;;
11835;SDS011;5977;51.972;7.640;2022-08-23T01:55:14;161.43;;;55.50;;
11835;SDS011;5977;51.972;7.640;2022-08-23T01:57:42;160.97;;;55.27;;
11835;SDS011;5977;51.972;7.640;2022-08-23T02:00:16;160.17;;;54.70;;
11835;SDS011;5977;51.972;7.640;2022-08-23T02:02:45;160.07;;;55.17;;
11835;SDS011;5977;51.972;7.640;2022-08-23T02:05:13;161.47;;;55.87;;
11835;SDS011;5977;51.972;7.640;2022-08-23T02:07:44;161.77;;;56.17;;
11835;SDS011;5977;51.972;7.640;2022-08-23T02:10:14;161.93;;;56.43;;
11835;SDS011;5977;51.972;7.640;2022-08-23T02:12:42;160.43;;;54.80;;
11835;SDS011;5977;51.972;7.640;2022-08-23T02:15:14;160.10;;;54.50;;
11835;SDS011;5977;51.972;7.640;2022-08-23T02:17:45;161.13;;;55.33;;
11835;SDS011;5977;51.972;7.640;2022-08-23T02:20:13;161.43;;;55.17;;
11835;SDS011;5977;51.972;7.640;2022-08-23T02:22:41;160.53;;;55.07;;
11835;SDS011;5977;51.972;7.640;2022-08-23T02:25:09;160.73;;;54.87;;
11835;SDS011;5977;51.972;7.640;2022-08-23T02:27:39;160.47;;;54.50;;
11835;SDS011;5977;51.972;7.640;2022-08-23T02:30:11;160.97;;;55.40;;
11835;SDS011;5977;51.972;7.640;2022-08-23T02:32:39;161.07;;;55.33;;
11835;SDS011;5977;51.972;7.640;2022-08-23T02:35:08;160.97;;;55.00;;
11835;SDS011;5977;51.972;7.640;2022-08-23T02:37:39;161.33;;;55.70;;
11835;SDS011;5977;51.972;7.640;2022-08-23T02:40:08;161.30;;;55.70;;
11835;SDS011;5977;51.972;7.640;2022-08-23T02:42:37;160.30;;;54.77;;
11835;SDS011;5977;51.972;7.640;2022-08-23T02:45:07;160.90;;;55.50;;
11835;SDS011;5977;51.972;7.640;2022-08-23T02:47:42;161.40;;;55.53;;
11835;SDS011;5977;51.972;7.640;2022-08-23T02:50:18;160.97;;;55.33;;
11835;SDS011;5977;51.972;7.640;2022-08-23T02:52:46;160.30;;;54.87;;
11835;SDS011;5977;51.972;7.640;2022-08-23T02:55:15;160.33;;;54.83;;
11835;SDS011;5977;51.972;7.640;2022-08-23T02:57:44;161.73;;;55.57;;
11835;SDS011;5977;51.972;7.640;2022-08-23T03:00:13;160.93;;;55.57;;
11835;SDS011;5977;51.972;7.640;2022-08-23T03:02:44;162.10;;;55.97;;
11835;SDS011;5977;51.972;7.640;2022-08-23T03:05:13;161.07;;;55.17;;
11835;SDS011;5977;51.972;7.640;2022-08-23T03:07:42;161.47;;;55.30;;
11835;SDS011;5977;51.972;7.640;2022-08-23T03:10:11;160.40;;;54.60;;
11835;SDS011;5977;51.972;7.640;2022-08-23T03:12:46;160.50;;;55.00;;
11835;SDS011;5977;51.972;7.640;2022-08-23T03:15:14;161.17;;;55.47;;
11835;SDS011;5977;51.972;7.640;2022-08-23T03:17:42;161.50;;;55.70;;
11835;SDS011;5977;51.972;7.640;2022-08-23T03:20:11;160.93;;;55.13;;
11835;SDS011;5977;51.972;7.640;2022-08-23T03:22:39;160.80;;;55.23;;
11835;SDS011;5977;51.972;7.640;2022-08-23T03:25:20;160.97;;;55.53;;
11835;SDS011;5977;51.972;7.640;2022-08-23T03:28:04;160.43;;;54.27;;
11835;SDS011;5977;51.972;7.640;2022-08-23T03:30:38;160.53;;;54.67;;
11835;SDS011;5977;51.972;7.640;2022-08-23T03:33:07;161.23;;;55.40;;
11835;SDS011;5977;51.972;7.640;2022-08-23T03:35:35;160.80;;;54.80;;
11835;SDS011;5977;51.972;7.640;2022-08-23T03:38:03;160.27;;;54.93;;
11835;SDS011;5977;51.972;7.640;2022-08-23T03:40:32;160.83;;;54.80;;
11835;SDS011;5977;51.972;7.640;2022-08-23T03:43:01;160.97;;;54.97;;
11835;SDS011;5977;51.972;7.640;2022-08-23T03:45:31;160.97;;;55.00;;
11835;SDS011;5977;51.972;7.640;2022-08-23T03:47:59;161.20;;;54.90;;
11835;SDS011;5977;51.972;7.640;2022-08-23T03:50:30;160.77;;;55.07;;
11835;SDS011;5977;51.972;7.640;2022-08-23T03:52:58;160.37;;;54.40;;
11835;SDS011;5977;51.972;7.640;2022-08-23T03:55:26;161.07;;;55.10;;
11835;SDS011;5977;51.972;7.640;2022-08-23T03:57:55;161.13;;;54.97;;
11835;SDS011;5977;51.972;7.640;2022-08-23T04:00:23;160.40;;;54.57;;
11835;SDS011;5977;51.972;7.640;2022-08-23T04:02:53;161.07;;;55.20;;
11835;SDS011;5977;51.972;7.640;2022-08-23T04:05:23;162.10;;;55.73;;
11835;SDS011;5977;51.972;7.640;2022-08-23T04:07:51;160.80;;;54.67;;
11835;SDS011;5977;51.972;7.640;2022-08-23T04:10:22;161.03;;;55.13;;
11835;SDS011;5977;51.972;7.640;2022-08-23T04:12:53;161.20;;;55.27;;
11835;SDS011;5977;51.972;7.640;2022-08-23T04:15:22;160.47;;;54.70;;
11835;SDS011;5977;51.972;7.640;2022-08-23T04:17:50;161.10;;;54.77;;
11835;SDS011;5977;51.972;7.640;2022-08-23T04:20:22;160.73;;;55.03;;
11835;SDS011;5977;51.972;7.640;2022-08-23T04:22:55;160.27;;;54.70;;
11835;SDS011;5977;51.972;7.640;2022-08-23T04:25:25;160.93;;;54.97;;
11835;SDS011;5977;51.972;7.640;2022-08-23T04:28:02;161.07;;;54.87;;
11835;SDS011;5977;51.972;7.640;2022-08-23T04:30:31;160.03;;;54.30;;
11835;SDS011;5977;51.972;7.640;2022-08-23T04:33:01;161.43;;;54.70;;
11835;SDS011;5977;51.972;7.640;2022-08-23T04:35:37;160.83;;;54.90;;
11835;SDS011;5977;51.972;7.640;2022-08-23T04:38:07;160.87;;;54.77;;
11835;SDS011;5977;51.972;7.640;2022-08-23T04:40:50;161.33;;;54.80;;
11835;SDS011;5977;51.972;7.640;2022-08-23T04:43:47;161.63;;;55.37;;
11835;SDS011;5977;51.972;7.640;2022-08-23T04:46:15;160.83;;;54.67;;
11835;SDS011;5977;51.972;7.640;2022-08-23T04:48:45;161.07;;;55.30;;
11835;SDS011;5977;51.972;7.640;2022-08-23T04:51:17;161.63;;;55.43;;
11835;SDS011;5977;51.972;7.640;2022-08-23T04:53:45;160.90;;;54.80;;
11835;SDS011;5977;51.972;7.640;2022-08-23T04:56:37;161.17;;;54.70;;
11835;SDS011;5977;51.972;7.640;2022-08-23T04:59:06;160.93;;;55.17;;
11835;SDS011;5977;51.972;7.640;2022-08-23T05:01:39;161.17;;;55.03;;
11835;SDS011;5977;51.972;7.640;2022-08-23T05:04:07;161.10;;;55.03;;
11835;SDS011;5977;51.972;7.640;2022-08-23T05:06:39;161.20;;;55.20;;
11835;SDS011;5977;51.972;7.640;2022-08-23T05:09:08;161.47;;;55.27;;
11835;SDS011;5977;51.972;7.640;2022-08-23T05:11:35;161.47;;;55.03;;
11835;SDS011;5977;51.972;7.640;2022-08-23T05:14:03;160.60;;;54.57;;
11835;SDS011;5977;51.972;7.640;2022-08-23T05:16:32;160.90;;;55.10;;
11835;SDS011;5977;51.972;7.640;2022-08-23T05:19:05;161.37;;;55.07;;
11835;SDS011;5977;51.972;7.640;2022-08-23T05:21:41;160.93;;;54.67;;
11835;SDS011;5977;51.972;7.640;2022-08-23T05:24:10;160.43;;;54.93;;
11835;SDS011;5977;51.972;7.640;2022-08-23T05:26:40;161.37;;;55.50;;
11835;SDS011;5977;51.972;7.640;2022-08-23T05:29:08;160.57;;;54.47;;
11835;SDS011;5977;51.972;7.640;2022-08-23T05:31:42;161.23;;;55.50;;
11835;SDS011;5977;51.972;7.640;2022-08-23T05:34:12;160.73;;;54.37;;
11835;SDS011;5977;51.972;7.640;2022-08-23T05:36:48;160.37;;;54.43;;
11835;SDS011;5977;51.972;7.640;2022-08-23T05:39:30;161.27;;;55.47;;
11835;SDS011;5977;51.972;7.640;2022-08-23T05:42:04;161.00;;;54.93;;
11835;SDS011;5977;51.972;7.640;2022-08-23T05:44:33;161.37;;;55.07;;
11835;SDS011;5977;51.972;7.640;2022-08-23T05:47:04;160.50;;;54.40;;
11835;SDS011;5977;51.972;7.640;2022-08-23T05:49:47;160.90;;;54.57;;
11835;SDS011;5977;51.972;7.640;2022-08-23T05:52:17;161.30;;;54.77;;
11835;SDS011;5977;51.972;7.640;2022-08-23T05:54:45;160.57;;;54.13;;
11835;SDS011;5977;51.972;7.640;2022-08-23T05:57:33;160.40;;;54.20;;
11835;SDS011;5977;51.972;7.640;2022-08-23T06:00:01;160.50;;;54.50;;
11835;SDS011;5977;51.972;7.640;2022-08-23T06:02:31;161.20;;;54.57;;
11835;SDS011;5977;51.972;7.640;2022-08-23T06:04:58;160.37;;;53.93;;
11835;SDS011;5977;51.972;7.640;2022-08-23T06:07:28;161.07;;;54.67;;
11835;SDS011;5977;51.972;7.640;2022-08-23T06:09:56;160.47;;;54.10;;
11835;SDS011;5977;51.972;7.640;2022-08-23T06:12:24;160.60;;;53.90;;
11835;SDS011;5977;51.972;7.640;2022-08-23T06:14:52;160.70;;;53.63;;
11835;SDS011;5977;51.972;7.640;2022-08-23T06:17:20;161.00;;;53.90;;
11835;SDS011;5977;51.972;7.640;2022-08-23T06:19:48;160.77;;;54.10;;
11835;SDS011;5977;51.972;7.640;2022-08-23T06:22:29;161.50;;;54.07;;
11835;SDS011;5977;51.972;7.640;2022-08-23T06:24:58;161.10;;;53.70;;
11835;SDS011;5977;51.972;7.640;2022-08-23T06:27:42;161.60;;;53.50;;
11835;SDS011;5977;51.972;7.640;2022-08-23T06:30:11;161.67;;;54.20;;
11835;SDS011;5977;51.972;7.640;2022-08-23T06:32:39;161.33;;;53.67;;
11835;SDS011;5977;51.972;7.640;2022-08-23T06:35:27;160.03;;;53.23;;
11835;SDS011;5977;51.972;7.640;2022-08-23T06:38:09;161.30;;;53.70;;
11835;SDS011;5977;51.972;7.640;2022-08-23T06:40:44;161.23;;;54.07;;
11835;SDS011;5977;51.972;7.640;2022-08-23T06:43:18;161.47;;;54.07;;
11835;SDS011;5977;51.972;7.640;2022-08-23T06:46:13;161.10;;;54.37;;
11835;SDS011;5977;51.972;7.640;2022-08-23T06:48:43;160.60;;;53.57;;
11835;SDS011;5977;51.972;7.640;2022-08-23T06:51:12;160.30;;;53.50;;
11835;SDS011;5977;51.972;7.640;2022-08-23T06:54:02;160.87;;;54.30;;
11835;SDS011;5977;51.972;7.640;2022-08-23T06:56:42;160.63;;;54.10;;
11835;SDS011;5977;51.972;7.640;2022-08-23T06:59:20;160.37;;;54.17;;
11835;SDS011;5977;51.972;7.640;2022-08-23T07:02:07;160.57;;;54.20;;
11835;SDS011;5977;51.972;7.640;2022-08-23T07:04:58;160.80;;;54.00;;
11835;SDS011;5977;51.972;7.640;2022-08-23T07:07:50;161.10;;;55.00;;
11835;SDS011;5977;51.972;7.640;2022-08-23T07:10:19;161.03;;;55.00;;
11835;SDS011;5977;51.972;7.640;2022-08-23T07:12:47;160.70;;;54.50;;
11835;SDS011;5977;51.972;7.640;2022-08-23T07:15:18;161.30;;;54.93;;
11835;SDS011;5977;51.972;7.640;2022-08-23T07:17:46;160.60;;;54.40;;
11835;SDS011;5977;51.972;7.640;2022-08-23T07:20:14;161.10;;;54.90;;
11835;SDS011;5977;51.972;7.640;2022-08-23T07:22:43;160.80;;;54.70;;
11835;SDS011;5977;51.972;7.640;2022-08-23T07:25:11;160.47;;;54.70;;
11835;SDS011;5977;51.972;7.640;2022-08-23T07:27:45;161.03;;;54.37;;
11835;SDS011;5977;51.972;7.640;2022-08-23T07:30:14;160.43;;;54.50;;
11835;SDS011;5977;51.972;7.640;2022-08-23T07:32:43;160.80;;;54.63;;
11835;SDS011;5977;51.972;7.640;2022-08-23T07:35:19;160.57;;;54.27;;
11835;SDS011;5977;51.972;7.640;2022-08-23T07:37:50;161.00;;;54.93;;
11835;SDS011;5977;51.972;7.640;2022-08-23T07:40:18;160.40;;;54.10;;
11835;SDS011;5977;51.972;7.640;2022-08-23T07:42:52;160.33;;;54.30;;
11835;SDS011;5977;51.972;7.640;2022-08-23T07:45:23;160.37;;;54.67;;
11835;SDS011;5977;51.972;7.640;2022-08-23T07:47:54;159.97;;;54.67;;
11835;SDS011;5977;51.972;7.640;2022-08-23T07:50:24;160.80;;;55.20;;
11835;SDS011;5977;51.972;7.640;2022-08-23T07:52:57;159.40;;;54.37;;
11835;SDS011;5977;51.972;7.640;2022-08-23T07:55:26;160.70;;;56.90;;
11835;SDS011;5977;51.972;7.640;2022-08-23T07:58:14;160.17;;;56.90;;
11835;SDS011;5977;51.972;7.640;2022-08-23T08:00:52;160.20;;;57.27;;
11835;SDS011;5977;51.972;7.640;2022-08-23T08:03:40;160.70;;;58.37;;
11835;SDS011;5977;51.972;7.640;2022-08-23T08:06:23;160.73;;;58.27;;
11835;SDS011;5977;51.972;7.640;2022-08-23T08:08:52;161.77;;;59.77;;
11835;SDS011;5977;51.972;7.640;2022-08-23T08:11:21;162.33;;;59.83;;
11835;SDS011;5977;51.972;7.640;2022-08-23T08:14:03;163.67;;;60.70;;
11835;SDS011;5977;51.972;7.640;2022-08-23T08:16:36;163.93;;;61.50;;
11835;SDS011;5977;51.972;7.640;2022-08-23T08:19:08;163.83;;;60.77;;
11835;SDS011;5977;51.972;7.640;2022-08-23T08:22:03;164.53;;;62.07;;
11835;SDS011;5977;51.972;7.640;2022-08-23T08:24:54;164.20;;;61.53;;
11835;SDS011;5977;51.972;7.640;2022-08-23T08:27:22;162.67;;;59.30;;
11835;SDS011;5977;51.972;7.640;2022-08-23T08:29:51;164.80;;;61.80;;
11835;SDS011;5977;51.972;7.640;2022-08-23T08:32:20;164.57;;;61.53;;
11835;SDS011;5977;51.972;7.640;2022-08-23T08:34:48;164.90;;;62.63;;
11835;SDS011;5977;51.972;7.640;2022-08-23T08:37:16;164.73;;;61.67;;
11835;SDS011;5977;51.972;7.640;2022-08-23T08:39:44;165.00;;;61.97;;
11835;SDS011;5977;51.972;7.640;2022-08-23T08:45:20;163.57;;;60.60;;
11835;SDS011;5977;51.972;7.640;2022-08-23T08:47:55;165.07;;;62.50;;
11835;SDS011;5977;51.972;7.640;2022-08-23T08:50:34;164.57;;;62.20;;
11835;SDS011;5977;51.972;7.640;2022-08-23T08:53:07;164.93;;;62.93;;
11835;SDS011;5977;51.972;7.640;2022-08-23T08:55:57;164.00;;;61.70;;
11835;SDS011;5977;51.972;7.640;2022-08-23T08:58:35;164.80;;;62.57;;
11835;SDS011;5977;51.972;7.640;2022-08-23T09:01:11;164.63;;;62.53;;
11835;SDS011;5977;51.972;7.640;2022-08-23T09:03:42;165.00;;;62.70;;
11835;SDS011;5977;51.972;7.640;2022-08-23T09:06:14;165.73;;;62.40;;
11835;SDS011;5977;51.972;7.640;2022-08-23T09:08:53;165.43;;;62.50;;
11835;SDS011;5977;51.972;7.640;2022-08-23T09:11:39;166.10;;;63.43;;
11835;SDS011;5977;51.972;7.640;2022-08-23T09:14:18;165.20;;;62.13;;
11835;SDS011;5977;51.972;7.640;2022-08-23T09:17:03;166.07;;;63.07;;
11835;SDS011;5977;51.972;7.640;2022-08-23T09:19:35;166.27;;;63.47;;
11835;SDS011;5977;51.972;7.640;2022-08-23T09:22:06;166.50;;;63.87;;
11835;SDS011;5977;51.972;7.640;2022-08-23T09:24:40;164.80;;;62.00;;
11835;SDS011;5977;51.972;7.640;2022-08-23T09:27:14;165.70;;;63.07;;
11835;SDS011;5977;51.972;7.640;2022-08-23T09:29:50;166.27;;;63.60;;
11835;SDS011;5977;51.972;7.640;2022-08-23T09:32:27;165.20;;;62.57;;
11835;SDS011;5977;51.972;7.640;2022-08-23T09:35:10;165.80;;;63.43;;
11835;SDS011;5977;51.972;7.640;2022-08-23T09:37:48;164.97;;;62.50;;
11835;SDS011;5977;51.972;7.640;2022-08-23T09:40:35;164.87;;;61.30;;
11835;SDS011;5977;51.972;7.640;2022-08-23T09:43:10;165.70;;;63.13;;
11835;SDS011;5977;51.972;7.640;2022-08-23T09:45:41;165.73;;;63.17;;
11835;SDS011;5977;51.972;7.640;2022-08-23T09:48:32;165.27;;;62.57;;
11835;SDS011;5977;51.972;7.640;2022-08-23T09:51:04;165.93;;;63.47;;
11835;SDS011;5977;51.972;7.640;2022-08-23T09:53:39;166.83;;;63.83;;
11835;SDS011;5977;51.972;7.640;2022-08-23T09:56:15;164.80;;;62.03;;
11835;SDS011;5977;51.972;7.640;2022-08-23T09:58:48;165.80;;;63.93;;
11835;SDS011;5977;51.972;7.640;2022-08-23T10:01:33;165.23;;;62.00;;
11835;SDS011;5977;51.972;7.640;2022-08-23T10:04:12;166.17;;;63.57;;
11835;SDS011;5977;51.972;7.640;2022-08-23T10:06:42;166.60;;;63.97;;
11835;SDS011;5977;51.972;7.640;2022-08-23T10:09:20;165.67;;;62.83;;
11835;SDS011;5977;51.972;7.640;2022-08-23T10:11:50;164.70;;;61.43;;
11835;SDS011;5977;51.972;7.640;2022-08-23T10:14:20;165.77;;;62.90;;
11835;SDS011;5977;51.972;7.640;2022-08-23T10:16:58;166.10;;;62.27;;
11835;SDS011;5977;51.972;7.640;2022-08-23T10:19:37;164.97;;;61.80;;
11835;SDS011;5977;51.972;7.640;2022-08-23T10:22:16;166.53;;;63.53;;
11835;SDS011;5977;51.972;7.640;2022-08-23T10:25:17;165.47;;;62.40;;
11835;SDS011;5977;51.972;7.640;2022-08-23T10:27:54;166.00;;;63.47;;
11835;SDS011;5977;51.972;7.640;2022-08-23T10:30:45;165.73;;;62.77;;
11835;SDS011;5977;51.972;7.640;2022-08-23T10:33:22;165.87;;;62.20;;
11835;SDS011;5977;51.972;7.640;2022-08-23T10:35:58;164.73;;;61.77;;
11835;SDS011;5977;51.972;7.640;2022-08-23T10:38:33;166.17;;;62.33;;
11835;SDS011;5977;51.972;7.640;2022-08-23T10:41:21;165.13;;;61.00;;
11835;SDS011;5977;51.972;7.640;2022-08-23T10:44:15;165.60;;;62.30;;
11835;SDS011;5977;51.972;7.640;2022-08-23T10:46:56;166.93;;;63.60;;
11835;SDS011;5977;51.972;7.640;2022-08-23T10:49:35;166.90;;;63.63;;
11835;SDS011;5977;51.972;7.640;2022-08-23T10:52:08;165.47;;;61.87;;
11835;SDS011;5977;51.972;7.640;2022-08-23T10:54:42;166.03;;;62.87;;
11835;SDS011;5977;51.972;7.640;2022-08-23T10:57:27;165.33;;;61.47;;
11835;SDS011;5977;51.972;7.640;2022-08-23T10:59:58;167.33;;;63.53;;
11835;SDS011;5977;51.972;7.640;2022-08-23T11:02:29;167.10;;;63.30;;
11835;SDS011;5977;51.972;7.640;2022-08-23T11:05:20;166.37;;;62.30;;
11835;SDS011;5977;51.972;7.640;2022-08-23T11:07:56;167.13;;;63.00;;
11835;SDS011;5977;51.972;7.640;2022-08-23T11:10:29;166.23;;;62.30;;
11835;SDS011;5977;51.972;7.640;2022-08-23T11:13:02;165.87;;;62.07;;
11835;SDS011;5977;51.972;7.640;2022-08-23T11:15:39;165.97;;;61.80;;
11835;SDS011;5977;51.972;7.640;2022-08-23T11:21:06;166.17;;;61.70;;
11835;SDS011;5977;51.972;7.640;2022-08-23T11:23:48;165.90;;;61.80;;
11835;SDS011;5977;51.972;7.640;2022-08-23T11:29:35;166.00;;;61.57;;
11835;SDS011;5977;51.972;7.640;2022-08-23T11:32:34;165.87;;;61.03;;
11835;SDS011;5977;51.972;7.640;2022-08-23T11:35:21;165.43;;;60.33;;
11835;SDS011;5977;51.972;7.640;2022-08-23T11:38:06;165.97;;;61.27;;
11835;SDS011;5977;51.972;7.640;2022-08-23T11:43:32;167.03;;;61.80;;
11835;SDS011;5977;51.972;7.640;2022-08-23T11:46:14;166.50;;;61.97;;
11835;SDS011;5977;51.972;7.640;2022-08-23T11:49:14;166.87;;;61.87;;
11835;SDS011;5977;51.972;7.640;2022-08-23T11:51:55;166.00;;;61.10;;
11835;SDS011;5977;51.972;7.640;2022-08-23T11:54:37;167.17;;;61.87;;
11835;SDS011;5977;51.972;7.640;2022-08-23T11:57:28;166.20;;;61.60;;
11835;SDS011;5977;51.972;7.640;2022-08-23T12:00:14;166.60;;;61.47;;
11835;SDS011;5977;51.972;7.640;2022-08-23T12:02:58;166.53;;;61.57;;
11835;SDS011;5977;51.972;7.640;2022-08-23T12:08:48;165.63;;;59.90;;
11835;SDS011;5977;51.972;7.640;2022-08-23T12:11:21;165.77;;;60.03;;
11835;SDS011;5977;51.972;7.640;2022-08-23T12:13:59;165.73;;;60.70;;
11835;SDS011;5977;51.972;7.640;2022-08-23T12:16:48;166.37;;;60.77;;
11835;SDS011;5977;51.972;7.640;2022-08-23T12:19:29;166.37;;;61.00;;
11835;SDS011;5977;51.972;7.640;2022-08-23T12:22:06;166.97;;;61.47;;
11835;SDS011;5977;51.972;7.640;2022-08-23T12:24:40;165.67;;;60.07;;
11835;SDS011;5977;51.972;7.640;2022-08-23T12:27:18;165.70;;;60.13;;
11835;SDS011;5977;51.972;7.640;2022-08-23T12:29:57;166.07;;;60.70;;
11835;SDS011;5977;51.972;7.640;2022-08-23T12:32:34;164.97;;;59.73;;
11835;SDS011;5977;51.972;7.640;2022-08-23T12:35:15;165.67;;;60.47;;
11835;SDS011;5977;51.972;7.640;2022-08-23T12:37:54;166.03;;;60.43;;
11835;SDS011;5977;51.972;7.640;2022-08-23T12:40:30;166.23;;;60.13;;
11835;SDS011;5977;51.972;7.640;2022-08-23T12:43:03;165.63;;;60.27;;
11835;SDS011;5977;51.972;7.640;2022-08-23T12:45:39;165.60;;;60.17;;
11835;SDS011;5977;51.972;7.640;2022-08-23T12:48:09;165.57;;;60.37;;
11835;SDS011;5977;51.972;7.640;2022-08-23T12:50:39;165.67;;;59.97;;
11835;SDS011;5977;51.972;7.640;2022-08-23T12:53:09;166.23;;;60.90;;
11835;SDS011;5977;51.972;7.640;2022-08-23T12:55:41;166.30;;;61.00;;
11835;SDS011;5977;51.972;7.640;2022-08-23T12:58:12;165.03;;;59.47;;
11835;SDS011;5977;51.972;7.640;2022-08-23T13:00:50;165.53;;;60.33;;
11835;SDS011;5977;51.972;7.640;2022-08-23T13:03:22;166.70;;;61.53;;
11835;SDS011;5977;51.972;7.640;2022-08-23T13:05:55;166.60;;;61.70;;
11835;SDS011;5977;51.972;7.640;2022-08-23T13:08:28;166.33;;;61.10;;
11835;SDS011;5977;51.972;7.640;2022-08-23T13:11:00;165.93;;;60.83;;
11835;SDS011;5977;51.972;7.640;2022-08-23T13:13:34;166.30;;;61.60;;
11835;SDS011;5977;51.972;7.640;2022-08-23T13:18:53;165.90;;;60.93;;
11835;SDS011;5977;51.972;7.640;2022-08-23T13:21:27;165.33;;;59.83;;
11835;SDS011;5977;51.972;7.640;2022-08-23T13:27:18;166.17;;;60.37;;
11835;SDS011;5977;51.972;7.640;2022-08-23T13:29:49;165.27;;;60.17;;
11835;SDS011;5977;51.972;7.640;2022-08-23T13:32:30;165.43;;;60.33;;
11835;SDS011;5977;51.972;7.640;2022-08-23T13:35:23;165.20;;;59.67;;
11835;SDS011;5977;51.972;7.640;2022-08-23T13:37:55;165.80;;;60.67;;
11835;SDS011;5977;51.972;7.640;2022-08-23T13:40:26;166.57;;;60.73;;
11835;SDS011;5977;51.972;7.640;2022-08-23T13:42:57;166.53;;;61.00;;
11835;SDS011;5977;51.972;7.640;2022-08-23T13:45:29;165.67;;;60.00;;
11835;SDS011;5977;51.972;7.640;2022-08-23T13:48:02;166.30;;;61.23;;
11835;SDS011;5977;51.972;7.640;2022-08-23T13:50:36;166.43;;;60.97;;
11835;SDS011;5977;51.972;7.640;2022-08-23T13:53:05;165.97;;;60.77;;
11835;SDS011;5977;51.972;7.640;2022-08-23T13:55:44;165.93;;;60.93;;
11835;SDS011;5977;51.972;7.640;2022-08-23T13:58:16;165.60;;;60.10;;
11835;SDS011;5977;51.972;7.640;2022-08-23T14:00:51;166.70;;;61.17;;
11835;SDS011;5977;51.972;7.640;2022-08-23T14:03:22;166.47;;;61.33;;
11835;SDS011;5977;51.972;7.640;2022-08-23T14:05:51;165.57;;;60.13;;
11835;SDS011;5977;51.972;7.640;2022-08-23T14:08:19;166.33;;;60.97;;
11835;SDS011;5977;51.972;7.640;2022-08-23T14:10:48;169.13;;;61.93;;
11835;SDS011;5977;51.972;7.640;2022-08-23T14:13:16;169.63;;;61.67;;
11835;SDS011;5977;51.972;7.640;2022-08-23T14:15:54;168.90;;;61.30;;
11835;SDS011;5977;51.972;7.640;2022-08-23T14:18:52;169.27;;;61.37;;
11835;SDS011;5977;51.972;7.640;2022-08-23T14:21:39;169.10;;;61.37;;
11835;SDS011;5977;51.972;7.640;2022-08-23T14:24:07;169.87;;;61.47;;
11835;SDS011;5977;51.972;7.640;2022-08-23T14:26:35;169.50;;;61.63;;
11835;SDS011;5977;51.972;7.640;2022-08-23T14:29:16;171.03;;;62.60;;
11835;SDS011;5977;51.972;7.640;2022-08-23T14:31:47;169.67;;;61.47;;
11835;SDS011;5977;51.972;7.640;2022-08-23T14:34:18;171.20;;;62.30;;
11835;SDS011;5977;51.972;7.640;2022-08-23T14:36:46;169.03;;;60.73;;
11835;SDS011;5977;51.972;7.640;2022-08-23T14:39:34;169.93;;;61.63;;
11835;SDS011;5977;51.972;7.640;2022-08-23T14:42:02;168.77;;;60.83;;
11835;SDS011;5977;51.972;7.640;2022-08-23T14:44:31;170.50;;;62.23;;
11835;SDS011;5977;51.972;7.640;2022-08-23T14:47:01;170.10;;;61.73;;
11835;SDS011;5977;51.972;7.640;2022-08-23T14:49:31;170.00;;;62.03;;
11835;SDS011;5977;51.972;7.640;2022-08-23T14:51:59;169.47;;;61.57;;
11835;SDS011;5977;51.972;7.640;2022-08-23T14:54:27;171.10;;;62.83;;
11835;SDS011;5977;51.972;7.640;2022-08-23T14:56:55;169.83;;;61.93;;
11835;SDS011;5977;51.972;7.640;2022-08-23T14:59:24;169.60;;;61.73;;
11835;SDS011;5977;51.972;7.640;2022-08-23T15:01:52;169.80;;;62.13;;
11835;SDS011;5977;51.972;7.640;2022-08-23T15:04:21;169.63;;;61.47;;
11835;SDS011;5977;51.972;7.640;2022-08-23T15:06:55;169.23;;;61.37;;
11835;SDS011;5977;51.972;7.640;2022-08-23T15:09:43;170.50;;;62.60;;
11835;SDS011;5977;51.972;7.640;2022-08-23T15:12:11;171.33;;;63.90;;
11835;SDS011;5977;51.972;7.640;2022-08-23T15:14:59;170.00;;;61.80;;
11835;SDS011;5977;51.972;7.640;2022-08-23T15:17:27;170.70;;;62.77;;
11835;SDS011;5977;51.972;7.640;2022-08-23T15:19:57;170.93;;;63.17;;
11835;SDS011;5977;51.972;7.640;2022-08-23T15:22:26;170.07;;;62.23;;